Time;durP1;ratioP1;P1;durP2;ratioP2;P2;SDS_P1;SDS_P2;PMS_P1;PMS_P2;Temp;Humidity;BMP_temperature;BMP_pressure;BME280_temperature;BME280_humidity;BME280_pressure;Samples;Min_cycle;Max_cycle;Signal;HPM_P1;HPM_P2
2023/03/18 00:03:38;;;;;;;5.47;2.60;;;10.50;99.90;;;;;;7276173;32;20100;-56
2023/03/18 00:07:40;;;;;;;6.93;2.40;;;10.50;99.90;;;;;;7271791;32;20151;-57
2023/03/18 00:11:42;;;;;;;5.97;2.65;;;10.50;99.90;;;;;;7273085;32;20118;-56
2023/03/18 00:15:44;;;;;;;7.65;2.95;;;10.50;99.90;;;;;;7280438;32;20108;-56
2023/03/18 00:19:46;;;;;;;4.53;2.45;;;10.60;99.90;;;;;;7273764;32;20525;-56
2023/03/18 00:23:49;;;;;;;7.68;2.75;;;10.60;99.90;;;;;;7270718;32;20201;-56
2023/03/18 00:27:51;;;;;;;6.22;2.87;;;10.60;99.90;;;;;;7271816;32;20224;-56
2023/03/18 00:31:53;;;;;;;6.75;3.00;;;10.70;99.90;;;;;;7280489;32;20213;-56
2023/03/18 00:35:55;;;;;;;11.75;3.10;;;10.70;99.90;;;;;;7277691;32;20112;-56
2023/03/18 00:40:05;;;;;;;9.60;2.72;;;10.60;99.90;;;;;;7272014;32;20515;-56
2023/03/18 00:44:07;;;;;;;7.50;2.78;;;10.70;99.90;;;;;;7273806;32;20112;-56
2023/03/18 00:48:09;;;;;;;8.15;2.78;;;10.70;99.90;;;;;;7278276;32;20199;-56
2023/03/18 00:52:11;;;;;;;9.52;3.28;;;10.60;99.90;;;;;;7274401;32;20167;-56
2023/03/18 00:56:14;;;;;;;6.80;3.03;;;10.50;99.90;;;;;;7276145;32;20221;-56
2023/03/18 01:00:17;;;;;;;8.70;3.40;;;10.60;99.90;;;;;;7275487;32;20104;-56
2023/03/18 01:04:20;;;;;;;6.87;3.12;;;10.50;99.90;;;;;;7278072;32;20124;-56
2023/03/18 01:08:22;;;;;;;5.93;3.12;;;10.50;99.90;;;;;;7275331;32;20124;-56
2023/03/18 01:12:24;;;;;;;8.27;2.80;;;10.50;99.90;;;;;;7277810;32;20165;-56
2023/03/18 01:16:27;;;;;;;9.43;3.50;;;10.40;99.90;;;;;;7277128;32;20202;-56
2023/03/18 01:20:29;;;;;;;9.05;3.28;;;10.40;99.90;;;;;;7276994;32;20108;-56
2023/03/18 01:24:31;;;;;;;7.40;3.22;;;10.40;99.90;;;;;;7280429;32;20210;-56
2023/03/18 01:28:32;;;;;;;8.90;2.90;;;10.50;99.90;;;;;;7276739;32;20623;-56
2023/03/18 01:32:35;;;;;;;6.97;3.05;;;10.50;99.90;;;;;;7284335;32;20192;-56
2023/03/18 01:36:37;;;;;;;8.30;3.42;;;10.40;99.90;;;;;;7278191;32;20093;-56
2023/03/18 01:40:41;;;;;;;6.75;3.20;;;10.40;99.90;;;;;;7281666;32;20219;-56
2023/03/18 01:44:45;;;;;;;9.23;3.45;;;10.40;99.90;;;;;;7277475;32;20195;-56
2023/03/18 01:48:48;;;;;;;10.98;3.12;;;10.40;99.90;;;;;;7271703;32;20731;-56
2023/03/18 01:52:57;;;;;;;6.25;2.97;;;10.50;99.90;;;;;;7275168;32;20177;-57
2023/03/18 01:57:00;;;;;;;4.78;2.90;;;10.60;99.90;;;;;;7276885;32;20228;-56
2023/03/18 02:01:24;;;;;;;12.20;4.30;;;10.60;99.90;;;;;;7276995;32;20547;-56
2023/03/18 02:05:28;;;;;;;10.15;3.37;;;10.60;99.90;;;;;;7274136;32;20194;-56
2023/03/18 02:09:30;;;;;;;7.93;3.75;;;10.60;99.90;;;;;;7276897;32;20154;-56
2023/03/18 02:13:38;;;;;;;9.65;3.75;;;10.60;99.90;;;;;;7281376;32;20176;-56
2023/03/18 02:17:45;;;;;;;12.05;3.97;;;10.50;99.90;;;;;;7273673;32;20097;-56
2023/03/18 02:22:02;;;;;;;8.00;3.50;;;10.60;99.90;;;;;;7274440;32;20184;-56
2023/03/18 02:26:10;;;;;;;;;;;10.50;99.90;;;;;;7284948;32;20130;-56
2023/03/18 02:30:17;;;;;;;11.50;4.28;;;10.40;99.90;;;;;;7274191;32;20008;-57
2023/03/18 02:34:23;;;;;;;11.05;4.12;;;10.20;99.90;;;;;;7273641;32;20099;-57
2023/03/18 02:38:25;;;;;;;9.90;4.53;;;10.10;99.90;;;;;;7273956;32;20158;-56
2023/03/18 02:42:29;;;;;;;6.07;3.80;;;10.00;99.90;;;;;;7273677;32;20101;-56
2023/03/18 02:46:54;;;;;;;9.48;3.83;;;9.80;99.90;;;;;;7279461;32;20763;-57
2023/03/18 02:50:56;;;;;;;9.75;4.65;;;9.70;99.90;;;;;;7280814;32;20770;-56
2023/03/18 02:54:58;;;;;;;9.00;4.32;;;9.50;99.90;;;;;;7273808;32;20100;-56
2023/03/18 02:58:59;;;;;;;7.28;4.30;;;9.40;99.90;;;;;;7272430;32;20254;-56
2023/03/18 03:03:02;;;;;;;10.35;4.95;;;9.30;99.90;;;;;;7276098;32;20120;-56
2023/03/18 03:07:04;;;;;;;10.65;4.45;;;9.30;99.90;;;;;;7283479;32;20100;-56
2023/03/18 03:11:07;;;;;;;9.82;4.85;;;9.20;99.90;;;;;;7282875;32;20103;-56
2023/03/18 03:15:09;;;;;;;9.70;5.28;;;9.20;99.90;;;;;;7286263;32;20100;-55
2023/03/18 03:19:11;;;;;;;9.50;5.20;;;9.10;99.90;;;;;;7278108;32;20495;-55
2023/03/18 03:23:14;;;;;;;10.90;4.65;;;9.20;99.90;;;;;;7283587;32;20190;-56
2023/03/18 03:27:16;;;;;;;9.68;5.47;;;9.10;99.90;;;;;;7279117;32;20122;-56
2023/03/18 03:31:18;;;;;;;8.23;5.07;;;9.10;99.90;;;;;;7287603;32;20128;-57
2023/03/18 03:35:21;;;;;;;10.73;5.25;;;9.10;99.90;;;;;;7285388;32;20096;-56
2023/03/18 03:39:22;;;;;;;11.57;5.12;;;9.10;99.90;;;;;;7278167;32;20104;-54
2023/03/18 03:43:24;;;;;;;7.30;5.65;;;9.00;99.90;;;;;;7279216;32;20805;-54
2023/03/18 03:47:26;;;;;;;10.05;5.75;;;9.10;99.90;;;;;;7283219;32;20126;-54
2023/03/18 03:51:28;;;;;;;10.30;6.22;;;9.00;99.90;;;;;;7276451;32;20100;-56
2023/03/18 03:55:30;;;;;;;10.30;5.72;;;9.10;99.90;;;;;;7285006;32;20107;-55
2023/03/18 03:59:32;;;;;;;16.62;6.43;;;9.10;99.90;;;;;;7281887;32;20206;-55
2023/03/18 04:03:34;;;;;;;15.35;6.53;;;9.10;99.90;;;;;;7280736;32;20379;-54
2023/03/18 04:07:36;;;;;;;11.02;5.62;;;9.10;99.90;;;;;;7272431;32;20108;-55
2023/03/18 04:11:38;;;;;;;12.77;6.55;;;9.00;99.90;;;;;;7273292;32;20227;-55
2023/03/18 04:15:39;;;;;;;12.85;6.75;;;9.10;99.90;;;;;;7282759;32;20400;-55
2023/03/18 04:19:41;;;;;;;8.27;6.62;;;9.10;99.90;;;;;;7282843;32;20092;-55
2023/03/18 04:23:43;;;;;;;11.90;6.28;;;9.10;99.90;;;;;;7276713;32;20565;-55
2023/03/18 04:27:44;;;;;;;11.65;6.62;;;9.20;99.90;;;;;;7279073;32;20337;-55
2023/03/18 04:31:46;;;;;;;12.88;6.62;;;9.20;99.90;;;;;;7280279;32;20766;-55
2023/03/18 04:35:48;;;;;;;13.43;6.57;;;9.30;99.90;;;;;;7274386;32;20183;-55
2023/03/18 04:39:50;;;;;;;14.57;7.28;;;9.50;99.90;;;;;;7288032;32;20169;-55
2023/03/18 04:43:52;;;;;;;10.45;6.22;;;9.50;99.90;;;;;;7282471;32;20108;-55
2023/03/18 04:47:53;;;;;;;11.27;6.90;;;9.90;99.90;;;;;;7276326;32;20233;-55
2023/03/18 04:51:55;;;;;;;11.02;6.50;;;9.80;99.90;;;;;;7279887;32;20179;-55
2023/03/18 04:55:57;;;;;;;11.48;6.65;;;10.00;99.90;;;;;;7277405;32;20570;-55
2023/03/18 04:59:59;;;;;;;8.93;7.00;;;10.10;99.90;;;;;;7279076;32;20154;-55
2023/03/18 05:04:00;;;;;;;10.38;6.57;;;10.00;99.90;;;;;;7279130;32;20207;-55
2023/03/18 05:08:02;;;;;;;10.48;6.10;;;10.00;99.90;;;;;;7273793;32;20130;-58
2023/03/18 05:12:04;;;;;;;9.55;6.85;;;10.00;99.90;;;;;;7277273;32;20313;-56
2023/03/18 05:16:07;;;;;;;12.25;7.12;;;10.10;99.90;;;;;;7275832;32;20104;-55
2023/03/18 05:20:10;;;;;;;10.65;6.30;;;10.20;99.90;;;;;;7285295;32;20151;-56
2023/03/18 05:24:12;;;;;;;15.15;7.00;;;10.10;99.90;;;;;;7274260;32;20096;-55
2023/03/18 05:28:13;;;;;;;13.27;5.80;;;10.00;99.90;;;;;;7274956;32;20788;-55
2023/03/18 05:32:15;;;;;;;17.50;6.53;;;10.10;99.90;;;;;;7280406;32;20564;-56
2023/03/18 05:36:18;;;;;;;8.13;5.97;;;10.20;99.90;;;;;;7277327;32;20103;-55
2023/03/18 05:40:20;;;;;;;12.00;7.30;;;10.20;99.90;;;;;;7282627;32;20123;-55
2023/03/18 05:44:22;;;;;;;13.10;7.03;;;10.10;99.90;;;;;;7272345;32;20097;-56
2023/03/18 05:48:24;;;;;;;11.40;7.00;;;10.20;99.90;;;;;;7278137;32;20594;-55
2023/03/18 05:52:27;;;;;;;10.95;6.30;;;10.10;99.90;;;;;;7277568;32;20132;-55
2023/03/18 05:56:30;;;;;;;14.27;6.82;;;10.20;99.90;;;;;;7278538;32;20637;-55
2023/03/18 06:00:31;;;;;;;13.95;6.87;;;10.20;99.90;;;;;;7277913;32;20126;-55
2023/03/18 06:04:33;;;;;;;11.25;6.05;;;10.20;99.90;;;;;;7277462;32;20233;-56
2023/03/18 06:08:35;;;;;;;9.60;5.75;;;10.30;99.90;;;;;;7272466;32;20262;-55
2023/03/18 06:12:37;;;;;;;8.88;5.57;;;10.30;99.90;;;;;;7283042;32;20119;-55
2023/03/18 06:16:40;;;;;;;7.45;5.15;;;10.30;99.90;;;;;;7279602;32;20301;-57
2023/03/18 06:20:42;;;;;;;9.77;5.18;;;10.30;99.90;;;;;;7283371;32;20710;-55
2023/03/18 06:24:44;;;;;;;7.82;4.95;;;10.40;99.90;;;;;;7279223;32;20130;-55
2023/03/18 06:28:49;;;;;;;10.10;5.25;;;10.40;99.90;;;;;;7282525;32;20320;-55
2023/03/18 06:32:52;;;;;;;9.65;5.55;;;10.40;99.90;;;;;;7274205;32;20195;-56
2023/03/18 06:36:53;;;;;;;9.82;5.35;;;10.40;99.90;;;;;;7280141;32;20111;-55
2023/03/18 06:40:55;;;;;;;11.60;5.60;;;10.40;99.90;;;;;;7273845;32;20104;-55
2023/03/18 06:44:57;;;;;;;8.88;6.05;;;10.50;99.90;;;;;;7277503;32;20123;-56
2023/03/18 06:48:58;;;;;;;7.87;5.07;;;10.50;99.90;;;;;;7275077;32;20120;-56
2023/03/18 06:53:00;;;;;;;8.38;5.10;;;10.30;99.90;;;;;;7275379;32;20095;-56
2023/03/18 06:57:02;;;;;;;11.48;5.45;;;10.30;99.90;;;;;;7274499;32;20126;-56
2023/03/18 07:01:04;;;;;;;9.90;5.37;;;10.40;99.90;;;;;;7274332;32;20657;-56
2023/03/18 07:05:06;;;;;;;8.63;5.75;;;10.30;99.90;;;;;;7284574;32;20127;-56
2023/03/18 07:09:10;;;;;;;8.85;5.30;;;10.20;99.90;;;;;;7284146;32;20617;-56
2023/03/18 07:13:12;;;;;;;11.05;6.40;;;10.10;99.90;;;;;;7275999;32;20126;-56
2023/03/18 07:17:14;;;;;;;9.75;5.60;;;10.10;99.90;;;;;;7277255;32;20209;-57
2023/03/18 07:21:16;;;;;;;9.30;6.20;;;10.20;99.90;;;;;;7271955;32;20120;-57
2023/03/18 07:25:18;;;;;;;8.15;5.90;;;10.20;99.90;;;;;;7278337;32;20104;-56
2023/03/18 07:29:23;;;;;;;10.18;5.70;;;10.30;99.90;;;;;;7277655;32;20475;-57
2023/03/18 07:33:24;;;;;;;7.70;5.43;;;10.40;99.90;;;;;;7274724;32;20226;-57
2023/03/18 07:37:26;;;;;;;9.32;5.57;;;10.60;99.90;;;;;;7273262;32;20206;-56
2023/03/18 07:41:28;;;;;;;8.57;5.07;;;10.80;99.90;;;;;;7277218;32;20122;-56
2023/03/18 07:45:30;;;;;;;9.25;5.00;;;11.00;99.90;;;;;;7272848;32;20096;-57
2023/03/18 07:49:32;;;;;;;7.55;4.35;;;11.10;99.90;;;;;;7271767;32;20144;-57
2023/03/18 07:53:34;;;;;;;8.75;4.12;;;11.40;99.90;;;;;;7277661;32;20104;-55
2023/03/18 07:57:36;;;;;;;5.07;3.97;;;11.80;99.90;;;;;;7275963;32;20243;-56
2023/03/18 08:01:38;;;;;;;7.93;4.07;;;12.00;99.90;;;;;;7283623;32;20173;-56
2023/03/18 08:05:40;;;;;;;8.35;4.45;;;12.10;99.90;;;;;;7285571;32;20214;-57
2023/03/18 08:09:42;;;;;;;6.87;3.62;;;12.30;99.90;;;;;;7286159;32;20118;-57
2023/03/18 08:13:43;;;;;;;7.90;3.87;;;12.50;99.90;;;;;;7285718;32;20099;-57
2023/03/18 08:17:46;;;;;;;7.35;3.15;;;12.60;99.90;;;;;;7285599;32;20742;-58
2023/03/18 08:21:47;;;;;;;6.30;3.65;;;12.80;99.90;;;;;;7285283;32;20238;-57
2023/03/18 08:25:50;;;;;;;7.25;3.15;;;12.90;99.90;;;;;;7284330;32;20175;-57
2023/03/18 08:29:51;;;;;;;6.22;3.08;;;13.00;99.90;;;;;;7288522;32;20100;-56
2023/03/18 08:33:55;;;;;;;7.22;3.42;;;13.10;99.90;;;;;;7284475;32;20115;-56
2023/03/18 08:37:56;;;;;;;7.53;3.30;;;14.00;99.90;;;;;;7290430;32;20729;-56
2023/03/18 08:41:58;;;;;;;8.93;2.87;;;14.90;99.90;;;;;;7287965;32;20470;-57
2023/03/18 08:46:00;;;;;;;7.82;2.90;;;15.40;99.90;;;;;;7280708;32;20609;-56
2023/03/18 08:50:01;;;;;;;3.85;2.87;;;15.50;99.90;;;;;;7283562;32;20716;-57
2023/03/18 08:54:03;;;;;;;6.22;2.95;;;15.60;99.90;;;;;;7282159;32;20127;-57
2023/03/18 08:58:06;;;;;;;7.20;2.65;;;16.40;99.90;;;;;;7289783;32;20118;-56
2023/03/18 09:02:15;;;;;;;6.40;3.20;;;16.40;99.90;;;;;;7275758;32;20138;-54
2023/03/18 09:06:17;;;;;;;7.03;3.35;;;16.20;99.90;;;;;;7277383;32;20112;-54
2023/03/18 09:10:19;;;;;;;8.40;2.90;;;15.50;99.90;;;;;;7283382;32;20237;-53
2023/03/18 09:14:20;;;;;;;6.32;3.25;;;15.00;99.90;;;;;;7281428;32;20244;-57
2023/03/18 09:18:23;;;;;;;3.97;2.50;;;15.20;99.90;;;;;;7279644;32;20131;-57
2023/03/18 09:22:25;;;;;;;5.40;2.75;;;15.60;99.90;;;;;;7276849;32;20187;-56
2023/03/18 09:26:27;;;;;;;7.45;2.60;;;16.00;99.90;;;;;;7275791;32;20230;-56
2023/03/18 09:30:29;;;;;;;6.55;2.30;;;16.20;99.90;;;;;;7273424;32;20176;-56
2023/03/18 09:34:30;;;;;;;4.55;2.42;;;16.10;99.90;;;;;;7289568;32;20092;-57
2023/03/18 09:38:32;;;;;;;4.82;2.20;;;16.50;99.90;;;;;;7274893;32;20112;-56
2023/03/18 09:42:55;;;;;;;2.72;1.80;;;16.70;99.90;;;;;;7284891;32;20100;-56
2023/03/18 09:47:03;;;;;;;3.17;1.60;;;17.70;99.90;;;;;;7281811;32;20243;-57
2023/03/18 09:51:36;;;;;;;5.35;1.85;;;19.00;99.90;;;;;;7277441;32;20521;-57
2023/03/18 09:55:45;;;;;;;5.53;2.10;;;19.50;99.90;;;;;;7278171;32;20108;-57
2023/03/18 09:59:54;;;;;;;3.03;1.48;;;19.60;99.90;;;;;;7285110;32;20698;-58
2023/03/18 10:04:22;;;;;;;3.40;1.60;;;19.80;99.90;;;;;;7280665;32;20275;-56
2023/03/18 10:08:32;;;;;;;4.10;1.80;;;21.00;99.90;;;;;;7276745;32;20424;-56
2023/03/18 10:12:45;;;;;;;3.75;1.60;;;21.50;99.90;;;;;;7277571;32;20190;-55
2023/03/18 10:16:59;;;;;;;3.20;1.40;;;22.70;99.90;;;;;;7286471;32;20534;-57
2023/03/18 10:21:16;;;;;;;3.53;1.30;;;23.10;99.80;;;;;;7275847;32;20205;-59
2023/03/18 10:25:31;;;;;;;2.15;1.25;;;24.00;95.90;;;;;;7281936;32;20140;-56
2023/03/18 10:29:39;;;;;;;2.78;1.40;;;24.70;92.40;;;;;;7276174;32;20104;-56
2023/03/18 10:33:50;;;;;;;3.40;1.60;;;24.60;92.50;;;;;;7276449;32;20119;-57
2023/03/18 10:38:06;;;;;;;4.57;1.80;;;25.30;88.10;;;;;;7281042;32;20146;-57
2023/03/18 10:42:41;;;;;;;2.97;1.42;;;26.00;84.70;;;;;;7275809;32;20112;-57
2023/03/18 10:46:45;;;;;;;3.08;1.33;;;25.90;82.70;;;;;;7234533;32;20513;-57
2023/03/18 10:51:08;;;;;;;2.47;1.35;;;25.90;79.00;;;;;;7277368;32;20108;-56
2023/03/18 10:55:20;;;;;;;3.58;1.60;;;23.10;85.00;;;;;;7279868;32;20138;-56
2023/03/18 10:59:24;;;;;;;2.83;1.42;;;21.20;92.60;;;;;;7278099;32;20181;-56
2023/03/18 11:03:33;;;;;;;3.28;1.20;;;20.20;97.20;;;;;;7278752;32;20179;-56
2023/03/18 11:08:04;;;;;;;2.40;1.37;;;20.30;97.50;;;;;;7279708;32;20260;-57
2023/03/18 11:12:22;;;;;;;3.85;1.27;;;19.90;99.90;;;;;;7275507;32;20499;-57
2023/03/18 11:16:32;;;;;;;3.70;1.48;;;19.60;99.90;;;;;;7274551;32;20108;-57
2023/03/18 11:20:46;;;;;;;2.00;1.02;;;19.30;99.90;;;;;;7273598;32;20187;-57
2023/03/18 11:25:04;;;;;;;2.78;1.30;;;19.20;99.90;;;;;;7277777;32;20124;-58
2023/03/18 11:29:21;;;;;;;3.67;1.48;;;19.60;99.90;;;;;;7257200;32;20277;-58
2023/03/18 11:33:25;;;;;;;2.33;1.45;;;20.30;99.90;;;;;;7277463;32;20589;-58
2023/03/18 11:37:32;;;;;;;1.48;1.17;;;21.20;97.00;;;;;;7272106;32;20214;-56
2023/03/18 11:41:38;;;;;;;2.45;1.45;;;20.50;98.50;;;;;;7274804;32;20116;-56
2023/03/18 11:45:49;;;;;;;3.25;1.25;;;20.70;99.00;;;;;;7274501;32;20213;-58
2023/03/18 11:49:51;;;;;;;3.65;1.00;;;21.40;97.30;;;;;;7279387;32;20208;-56
2023/03/18 11:54:33;;;;;;;6.15;1.50;;;22.90;93.80;;;;;;7282284;32;20215;-56
2023/03/18 11:59:16;;;;;;;2.45;1.02;;;23.30;90.80;;;;;;7279906;32;20340;-56
2023/03/18 12:04:09;;;;;;;2.55;1.35;;;24.10;88.70;;;;;;7274346;32;20521;-55
2023/03/18 12:08:14;;;;;;;5.20;1.20;;;23.50;84.60;;;;;;7273088;32;20119;-57
2023/03/18 12:12:37;;;;;;;2.58;1.10;;;23.00;86.10;;;;;;7278748;32;20419;-57
2023/03/18 12:17:17;;;;;;;3.17;1.33;;;22.70;85.70;;;;;;7274374;32;20122;-58
2023/03/18 12:21:52;;;;;;;2.70;1.15;;;22.00;90.40;;;;;;7278887;32;20194;-58
2023/03/18 12:26:22;;;;;;;3.67;1.33;;;21.50;91.50;;;;;;7277019;32;20130;-56
2023/03/18 12:31:03;;;;;;;3.35;1.50;;;22.60;89.40;;;;;;7276307;32;20207;-56
2023/03/18 12:35:35;;;;;;;2.55;1.33;;;21.90;91.10;;;;;;7277862;32;20112;-56
2023/03/18 12:39:44;;;;;;;2.42;1.40;;;22.00;91.10;;;;;;7278013;32;20108;-57
2023/03/18 12:43:55;;;;;;;4.30;1.77;;;21.60;91.20;;;;;;7276791;32;20116;-56
2023/03/18 12:48:03;;;;;;;2.72;1.67;;;20.80;92.90;;;;;;7276118;32;20514;-56
2023/03/18 12:52:23;;;;;;;4.55;1.75;;;19.70;96.20;;;;;;7275589;32;20120;-56
2023/03/18 12:56:30;;;;;;;3.70;1.58;;;20.00;97.30;;;;;;7279661;32;20120;-57
2023/03/18 13:00:38;;;;;;;2.60;1.48;;;19.50;97.10;;;;;;7281464;32;20234;-56
2023/03/18 13:04:52;;;;;;;3.40;1.75;;;19.40;97.70;;;;;;7282176;32;20126;-57
2023/03/18 13:09:14;;;;;;;2.97;1.45;;;19.10;98.50;;;;;;7279729;32;20240;-57
2023/03/18 13:13:16;;;;;;;3.12;1.48;;;20.10;99.90;;;;;;7279427;32;20177;-56
2023/03/18 13:17:31;;;;;;;5.00;1.80;;;21.60;96.00;;;;;;7276684;32;20458;-59
2023/03/18 13:21:39;;;;;;;4.50;1.67;;;22.50;92.50;;;;;;7286637;32;20208;-57
2023/03/18 13:26:21;;;;;;;3.72;1.62;;;21.90;92.50;;;;;;7285124;32;20127;-57
2023/03/18 13:30:50;;;;;;;4.25;1.60;;;20.30;95.20;;;;;;7282539;32;20270;-57
2023/03/18 13:35:37;;;;;;;3.10;1.50;;;19.30;99.30;;;;;;7282600;32;20158;-57
2023/03/18 13:39:55;;;;;;;2.87;1.40;;;18.60;99.80;;;;;;7280696;32;20553;-57
2023/03/18 13:44:08;;;;;;;3.70;1.02;;;18.20;99.90;;;;;;7288947;32;20112;-57
2023/03/18 13:48:15;;;;;;;3.50;1.17;;;18.00;99.90;;;;;;7279613;32;20204;-57
2023/03/18 13:52:41;;;;;;;5.00;1.40;;;18.00;99.90;;;;;;7283474;32;20540;-57
2023/03/18 13:56:45;;;;;;;3.78;1.60;;;17.90;99.90;;;;;;7286318;32;20213;-57
2023/03/18 14:00:53;;;;;;;2.92;1.55;;;17.80;99.90;;;;;;7280237;32;20122;-57
2023/03/18 14:04:58;;;;;;;2.35;1.35;;;17.50;99.90;;;;;;7283461;32;20533;-57
2023/03/18 14:09:21;;;;;;;3.37;1.60;;;17.30;99.90;;;;;;7281760;32;20645;-57
2023/03/18 14:13:27;;;;;;;2.95;1.65;;;17.10;99.90;;;;;;7274277;32;20126;-57
2023/03/18 14:17:40;;;;;;;4.37;1.30;;;16.80;99.90;;;;;;7280922;32;20108;-56
2023/03/18 14:22:03;;;;;;;11.75;2.95;;;16.20;99.90;;;;;;7281713;32;20221;-56
2023/03/18 14:26:07;;;;;;;5.85;2.33;;;15.20;99.90;;;;;;7273414;32;20187;-57
2023/03/18 14:30:30;;;;;;;3.22;1.35;;;16.10;99.90;;;;;;7277870;32;20153;-56
2023/03/18 14:34:34;;;;;;;4.05;1.50;;;18.10;99.90;;;;;;7266535;32;20100;-56
2023/03/18 14:39:01;;;;;;;3.92;1.70;;;18.40;99.90;;;;;;7275389;32;20274;-57
2023/03/18 14:43:18;;;;;;;3.40;1.87;;;17.80;99.90;;;;;;7269893;32;20131;-57
2023/03/18 14:47:25;;;;;;;2.35;1.73;;;16.70;99.90;;;;;;7277442;32;20100;-57
2023/03/18 14:51:40;;;;;;;4.47;1.95;;;16.00;99.90;;;;;;7276969;32;20127;-57
2023/03/18 14:55:43;;;;;;;4.40;2.47;;;15.40;99.90;;;;;;7276794;32;20483;-57
2023/03/18 14:59:45;;;;;;;4.47;2.30;;;15.30;99.90;;;;;;7281499;32;20124;-57
2023/03/18 15:03:48;;;;;;;5.75;2.47;;;15.10;99.90;;;;;;7281099;32;20186;-57
2023/03/18 15:07:52;;;;;;;5.68;2.70;;;15.00;99.90;;;;;;7277346;32;20125;-58
2023/03/18 15:11:54;;;;;;;6.87;3.10;;;14.70;99.90;;;;;;7280706;32;20164;-57
2023/03/18 15:15:56;;;;;;;3.55;2.10;;;14.70;99.90;;;;;;7276698;32;20226;-57
2023/03/18 15:19:59;;;;;;;3.40;2.20;;;14.60;99.90;;;;;;7278378;32;20157;-57
2023/03/18 15:24:04;;;;;;;4.03;2.03;;;14.50;99.90;;;;;;7274754;32;20526;-57
2023/03/18 15:28:06;;;;;;;4.22;2.53;;;14.50;99.90;;;;;;7282337;32;20233;-57
2023/03/18 15:32:14;;;;;;;5.62;2.70;;;14.50;99.90;;;;;;7274957;32;20181;-57
2023/03/18 15:36:16;;;;;;;7.57;2.60;;;14.30;99.90;;;;;;7280396;32;20281;-57
2023/03/18 15:40:21;;;;;;;3.17;1.73;;;14.30;99.90;;;;;;7283585;32;20122;-57
2023/03/18 15:44:30;;;;;;;4.78;2.35;;;14.20;99.90;;;;;;7272051;32;20215;-57
2023/03/18 15:48:38;;;;;;;7.12;2.97;;;14.20;99.90;;;;;;7275086;32;20096;-57
2023/03/18 15:52:41;;;;;;;3.45;2.10;;;14.20;99.90;;;;;;7271713;32;20144;-57
2023/03/18 15:56:47;;;;;;;6.40;2.20;;;14.20;99.90;;;;;;7274836;32;20791;-57
2023/03/18 16:00:49;;;;;;;5.10;2.10;;;14.10;99.90;;;;;;7276452;32;20136;-56
2023/03/18 16:04:52;;;;;;;2.80;1.77;;;14.10;99.90;;;;;;7271751;32;20135;-57
2023/03/18 16:08:54;;;;;;;5.47;2.37;;;14.00;99.90;;;;;;7275279;32;20235;-56
2023/03/18 16:13:00;;;;;;;4.45;2.17;;;14.00;99.90;;;;;;7284426;32;20300;-56
2023/03/18 16:17:02;;;;;;;5.65;2.08;;;14.00;99.90;;;;;;7281625;32;20179;-57
2023/03/18 16:21:05;;;;;;;2.97;1.60;;;13.90;99.90;;;;;;7289324;32;20230;-56
2023/03/18 16:25:08;;;;;;;4.82;2.00;;;13.70;99.90;;;;;;7277957;32;20708;-56
2023/03/18 16:29:21;;;;;;;9.05;4.87;;;13.60;99.90;;;;;;7290416;32;20127;-56
2023/03/18 16:33:23;;;;;;;5.60;3.05;;;13.50;99.90;;;;;;7286754;32;20179;-56
2023/03/18 16:37:26;;;;;;;4.35;2.33;;;13.40;99.90;;;;;;7285087;32;20547;-56
2023/03/18 16:41:28;;;;;;;4.40;2.50;;;13.50;99.90;;;;;;7284889;32;20613;-56
2023/03/18 16:45:32;;;;;;;3.67;2.00;;;13.60;99.90;;;;;;7267138;32;20133;-57
2023/03/18 16:49:36;;;;;;;3.70;2.45;;;13.60;99.90;;;;;;7287839;32;20097;-56
2023/03/18 16:53:37;;;;;;;5.10;2.75;;;13.40;99.90;;;;;;7285111;32;20581;-57
2023/03/18 16:57:42;;;;;;;4.97;3.12;;;13.30;99.90;;;;;;7286334;32;20116;-57
2023/03/18 17:01:44;;;;;;;6.72;3.03;;;13.10;99.90;;;;;;7281230;32;20170;-57
2023/03/18 17:05:49;;;;;;;4.03;2.35;;;12.90;99.90;;;;;;7286534;32;20188;-57
2023/03/18 17:09:52;;;;;;;4.15;2.75;;;12.70;99.90;;;;;;7282879;32;20100;-57
2023/03/18 17:13:55;;;;;;;6.82;3.65;;;12.40;99.90;;;;;;7274068;32;20495;-58
2023/03/18 17:17:58;;;;;;;7.45;3.20;;;12.30;99.90;;;;;;7284557;32;20207;-57
2023/03/18 17:22:01;;;;;;;6.00;2.87;;;12.20;99.90;;;;;;7277679;32;20105;-57
2023/03/18 17:26:04;;;;;;;5.70;2.67;;;12.00;99.90;;;;;;7280256;32;20625;-57
2023/03/18 17:30:36;;;;;;;5.45;3.10;;;11.80;99.90;;;;;;7276076;32;20190;-57
2023/03/18 17:34:38;;;;;;;8.40;4.07;;;11.70;99.90;;;;;;7269155;32;20447;-57
2023/03/18 17:38:40;;;;;;;7.30;3.58;;;11.60;99.90;;;;;;7286772;32;20195;-57
2023/03/18 17:42:43;;;;;;;7.03;4.18;;;11.40;99.90;;;;;;7278109;32;20104;-57
2023/03/18 17:46:45;;;;;;;11.25;6.82;;;11.40;99.90;;;;;;7278978;32;20544;-57
2023/03/18 17:50:50;;;;;;;13.05;7.20;;;11.20;99.90;;;;;;7283420;32;20120;-57
2023/03/18 17:54:53;;;;;;;8.43;4.55;;;11.00;99.90;;;;;;7280071;32;20660;-56
2023/03/18 17:58:54;;;;;;;10.38;4.15;;;10.90;99.90;;;;;;7280854;32;20206;-56
2023/03/18 18:03:00;;;;;;;8.35;3.30;;;10.70;99.90;;;;;;7280378;32;20201;-57
2023/03/18 18:07:02;;;;;;;5.25;2.78;;;10.50;99.90;;;;;;7286188;32;20170;-57
2023/03/18 18:11:27;;;;;;;6.55;3.72;;;10.40;99.90;;;;;;7274707;32;20132;-56
2023/03/18 18:15:29;;;;;;;8.90;3.97;;;10.20;99.90;;;;;;7276935;32;20698;-57
2023/03/18 18:19:31;;;;;;;6.97;3.67;;;10.10;99.90;;;;;;7277651;32;20968;-56
2023/03/18 18:23:35;;;;;;;8.43;4.00;;;10.00;99.90;;;;;;7279230;32;20246;-56
2023/03/18 18:27:37;;;;;;;11.75;6.00;;;9.90;99.90;;;;;;7275759;32;20214;-56
2023/03/18 18:31:38;;;;;;;15.25;8.07;;;9.70;99.90;;;;;;7280542;32;20663;-56
2023/03/18 18:35:41;;;;;;;12.73;6.97;;;9.60;99.90;;;;;;7276793;32;20157;-56
2023/03/18 18:39:43;;;;;;;10.32;6.47;;;9.50;99.90;;;;;;7277800;32;20570;-56
2023/03/18 18:43:44;;;;;;;9.18;5.03;;;9.40;99.90;;;;;;7279592;32;20119;-55
2023/03/18 18:47:46;;;;;;;6.43;3.85;;;9.20;99.90;;;;;;7276677;32;20097;-55
2023/03/18 18:51:53;;;;;;;6.45;3.42;;;9.10;99.90;;;;;;7277052;32;20498;-55
2023/03/18 18:56:01;;;;;;;9.00;3.17;;;9.00;99.90;;;;;;7274267;32;20734;-56
2023/03/18 19:00:08;;;;;;;7.10;3.37;;;8.90;99.90;;;;;;7276079;32;20108;-55
2023/03/18 19:04:13;;;;;;;;;;;8.80;99.90;;;;;;7270544;32;20128;-56
2023/03/18 19:08:27;;;;;;;9.20;4.40;;;8.70;99.90;;;;;;7278096;32;20010;-56
2023/03/18 19:12:29;;;;;;;8.75;3.62;;;8.60;99.90;;;;;;7275750;32;20176;-56
2023/03/18 19:16:32;;;;;;;4.72;3.28;;;8.50;99.90;;;;;;7276642;32;20134;-56
2023/03/18 19:20:34;;;;;;;10.82;3.67;;;8.40;99.90;;;;;;7282499;32;20763;-56
2023/03/18 19:24:38;;;;;;;6.53;3.45;;;8.40;99.90;;;;;;7274009;32;20092;-56
2023/03/18 19:33:00;;;;;;;6.50;3.50;;;8.20;99.90;;;;;;7268754;32;20130;-56
2023/03/18 19:37:04;;;;;;;10.23;3.87;;;8.20;99.90;;;;;;7281376;32;20564;-56
2023/03/18 19:41:06;;;;;;;4.78;3.15;;;8.20;99.90;;;;;;7278583;32;20197;-56
2023/03/18 19:45:12;;;;;;;6.87;3.35;;;8.20;99.90;;;;;;7278912;32;20446;-55
2023/03/18 19:49:28;;;;;;;5.90;3.08;;;8.10;99.90;;;;;;7281595;32;20214;-56
2023/03/18 19:53:31;;;;;;;6.43;3.47;;;8.00;99.90;;;;;;7277523;32;20280;-54
2023/03/18 19:57:33;;;;;;;7.55;4.62;;;8.10;99.90;;;;;;7284630;32;20103;-55
2023/03/18 20:01:34;;;;;;;9.63;5.10;;;8.10;99.90;;;;;;7280149;32;20543;-55
2023/03/18 20:05:36;;;;;;;9.32;4.57;;;8.10;99.90;;;;;;7279833;32;20243;-56
2023/03/18 20:09:38;;;;;;;14.05;4.32;;;8.00;99.90;;;;;;7284620;32;20101;-56
2023/03/18 20:13:41;;;;;;;12.40;5.90;;;8.00;99.90;;;;;;7279086;32;20154;-56
2023/03/18 20:17:50;;;;;;;10.93;4.18;;;7.90;99.90;;;;;;7277240;32;20509;-55
2023/03/18 20:21:53;;;;;;;7.50;4.00;;;7.90;99.90;;;;;;7282525;32;20109;-56
2023/03/18 20:25:55;;;;;;;10.32;4.10;;;7.90;99.90;;;;;;7280111;32;20126;-55
2023/03/18 20:29:57;;;;;;;9.20;4.00;;;7.80;99.90;;;;;;7280927;32;20224;-56
2023/03/18 20:33:59;;;;;;;8.20;3.45;;;7.70;99.90;;;;;;7278568;32;20096;-55
2023/03/18 20:38:31;;;;;;;10.07;4.18;;;7.60;99.90;;;;;;7279907;32;20180;-56
2023/03/18 20:42:33;;;;;;;7.18;3.97;;;7.50;99.90;;;;;;7281633;32;20097;-56
2023/03/18 20:46:35;;;;;;;7.80;3.85;;;7.50;99.90;;;;;;7281826;32;20105;-55
2023/03/18 20:50:37;;;;;;;7.05;3.78;;;7.50;99.90;;;;;;7276524;32;20215;-55
2023/03/18 20:54:38;;;;;;;6.55;3.75;;;7.40;99.90;;;;;;7281859;32;20295;-56
2023/03/18 20:58:40;;;;;;;7.53;4.10;;;7.40;99.90;;;;;;7285613;32;20460;-55
2023/03/18 21:02:43;;;;;;;5.25;3.37;;;7.40;99.90;;;;;;7282735;32;20125;-55
2023/03/18 21:06:45;;;;;;;5.90;3.42;;;7.40;99.90;;;;;;7281272;32;20514;-56
2023/03/18 21:10:46;;;;;;;8.95;3.65;;;7.50;99.90;;;;;;7280900;32;20199;-55
2023/03/18 21:14:48;;;;;;;6.45;3.33;;;7.50;99.90;;;;;;7283921;32;20185;-56
2023/03/18 21:18:50;;;;;;;8.77;3.58;;;7.40;99.90;;;;;;7278945;32;20130;-56
2023/03/18 21:22:53;;;;;;;7.97;3.22;;;7.40;99.90;;;;;;7278590;32;20096;-54
2023/03/18 21:26:54;;;;;;;8.93;3.42;;;7.40;99.90;;;;;;7281883;32;20198;-56
2023/03/18 21:31:23;;;;;;;10.18;3.87;;;7.30;99.90;;;;;;7267096;32;20093;-54